sensor_id;sensor_type;location;lat;lon;timestamp;pressure;altitude;pressure_sealevel;temperature;humidity
22862;BME280;11598;50.652;6.172;2023-04-06T00:06:22;96587.13;;;-0.65;73.27
22862;BME280;11598;50.652;6.172;2023-04-06T00:16:23;96576.34;;;-0.75;73.96
22862;BME280;11598;50.652;6.172;2023-04-06T00:26:23;96576.41;;;-0.78;74.12
22862;BME280;11598;50.652;6.172;2023-04-06T00:36:24;96568.00;;;-0.80;74.72
22862;BME280;11598;50.652;6.172;2023-04-06T00:46:24;96554.50;;;-0.85;75.40
22862;BME280;11598;50.652;6.172;2023-04-06T00:56:24;96547.88;;;-0.91;75.80
22862;BME280;11598;50.652;6.172;2023-04-06T01:06:26;96537.03;;;-0.99;75.95
22862;BME280;11598;50.652;6.172;2023-04-06T01:16:26;96530.50;;;-1.08;76.13
22862;BME280;11598;50.652;6.172;2023-04-06T01:26:26;96521.34;;;-1.15;76.31
22862;BME280;11598;50.652;6.172;2023-04-06T01:36:29;96513.88;;;-1.22;76.61
22862;BME280;11598;50.652;6.172;2023-04-06T01:46:29;96502.97;;;-1.28;77.33
22862;BME280;11598;50.652;6.172;2023-04-06T01:56:30;96502.56;;;-1.43;78.19
22862;BME280;11598;50.652;6.172;2023-04-06T02:06:30;96492.19;;;-1.37;78.82
22862;BME280;11598;50.652;6.172;2023-04-06T02:16:31;96483.22;;;-1.19;77.97
22862;BME280;11598;50.652;6.172;2023-04-06T02:26:31;96481.84;;;-1.01;77.40
22862;BME280;11598;50.652;6.172;2023-04-06T02:36:32;96475.41;;;-0.83;76.53
22862;BME280;11598;50.652;6.172;2023-04-06T02:46:32;96461.16;;;-0.61;75.39
22862;BME280;11598;50.652;6.172;2023-04-06T02:56:32;96461.34;;;-0.40;74.40
22862;BME280;11598;50.652;6.172;2023-04-06T03:06:33;96451.66;;;-0.29;74.12
22862;BME280;11598;50.652;6.172;2023-04-06T03:16:33;96454.81;;;-0.21;73.97
22862;BME280;11598;50.652;6.172;2023-04-06T03:26:35;96454.56;;;-0.13;73.89
22862;BME280;11598;50.652;6.172;2023-04-06T03:36:35;96448.22;;;-0.02;74.06
22862;BME280;11598;50.652;6.172;2023-04-06T03:46:36;96452.81;;;0.14;73.84
22862;BME280;11598;50.652;6.172;2023-04-06T03:56:36;96441.97;;;0.32;73.45
22862;BME280;11598;50.652;6.172;2023-04-06T04:06:36;96442.91;;;0.55;73.23
22862;BME280;11598;50.652;6.172;2023-04-06T04:16:37;96445.53;;;0.77;72.88
22862;BME280;11598;50.652;6.172;2023-04-06T04:26:39;96441.31;;;0.99;72.36
22862;BME280;11598;50.652;6.172;2023-04-06T04:36:40;96439.75;;;1.19;72.02
22862;BME280;11598;50.652;6.172;2023-04-06T04:46:42;96443.41;;;1.35;71.45
22862;BME280;11598;50.652;6.172;2023-04-06T04:56:42;96440.31;;;1.49;71.02
22862;BME280;11598;50.652;6.172;2023-04-06T05:06:42;96445.69;;;1.65;70.44
22862;BME280;11598;50.652;6.172;2023-04-06T05:16:43;96445.84;;;1.82;70.14
22862;BME280;11598;50.652;6.172;2023-04-06T05:26:43;96445.50;;;2.12;69.70
22862;BME280;11598;50.652;6.172;2023-04-06T05:36:43;96442.63;;;2.40;68.85
22862;BME280;11598;50.652;6.172;2023-04-06T05:46:44;96440.69;;;2.45;68.94
22862;BME280;11598;50.652;6.172;2023-04-06T05:56:44;96439.00;;;2.65;69.25
22862;BME280;11598;50.652;6.172;2023-04-06T06:06:45;96438.78;;;2.90;69.44
22862;BME280;11598;50.652;6.172;2023-04-06T06:16:45;96432.47;;;3.16;68.98
22862;BME280;11598;50.652;6.172;2023-04-06T06:26:46;96436.78;;;3.71;68.76
22862;BME280;11598;50.652;6.172;2023-04-06T06:36:48;96433.63;;;4.53;68.19
22862;BME280;11598;50.652;6.172;2023-04-06T06:46:49;96425.47;;;5.11;67.20
22862;BME280;11598;50.652;6.172;2023-04-06T06:56:49;96435.59;;;5.62;66.85
22862;BME280;11598;50.652;6.172;2023-04-06T07:06:50;96428.53;;;5.81;66.78
22862;BME280;11598;50.652;6.172;2023-04-06T07:16:51;96422.28;;;6.01;65.95
22862;BME280;11598;50.652;6.172;2023-04-06T07:26:51;96423.75;;;6.35;65.61
22862;BME280;11598;50.652;6.172;2023-04-06T07:36:51;96421.00;;;6.53;64.37
22862;BME280;11598;50.652;6.172;2023-04-06T07:46:53;96409.31;;;6.76;63.85
22862;BME280;11598;50.652;6.172;2023-04-06T07:56:54;96418.34;;;6.97;63.68
22862;BME280;11598;50.652;6.172;2023-04-06T08:06:54;96419.34;;;7.24;62.72
22862;BME280;11598;50.652;6.172;2023-04-06T08:16:55;96421.13;;;7.65;61.29
22862;BME280;11598;50.652;6.172;2023-04-06T08:26:55;96414.56;;;7.86;60.41
22862;BME280;11598;50.652;6.172;2023-04-06T08:36:56;96414.22;;;8.18;59.62
22862;BME280;11598;50.652;6.172;2023-04-06T08:46:57;96422.31;;;8.66;57.79
22862;BME280;11598;50.652;6.172;2023-04-06T08:56:59;96426.00;;;8.75;56.42
22862;BME280;11598;50.652;6.172;2023-04-06T09:07:00;96432.44;;;8.69;55.92
22862;BME280;11598;50.652;6.172;2023-04-06T09:17:01;96429.03;;;8.68;55.72
22862;BME280;11598;50.652;6.172;2023-04-06T09:27:01;96439.81;;;8.75;55.61
22862;BME280;11598;50.652;6.172;2023-04-06T09:37:12;96443.44;;;8.85;56.03
22862;BME280;11598;50.652;6.172;2023-04-06T09:47:14;96439.41;;;8.94;56.45
22862;BME280;11598;50.652;6.172;2023-04-06T09:57:25;96438.84;;;9.15;56.70
22862;BME280;11598;50.652;6.172;2023-04-06T10:07:26;96427.00;;;9.36;57.25
22862;BME280;11598;50.652;6.172;2023-04-06T10:17:26;96428.19;;;9.80;57.05
22862;BME280;11598;50.652;6.172;2023-04-06T10:27:28;96428.69;;;9.85;55.94
22862;BME280;11598;50.652;6.172;2023-04-06T10:37:46;96424.06;;;9.78;57.40
22862;BME280;11598;50.652;6.172;2023-04-06T10:47:46;96426.75;;;9.52;55.69
22862;BME280;11598;50.652;6.172;2023-04-06T10:57:46;96416.81;;;9.46;55.67
22862;BME280;11598;50.652;6.172;2023-04-06T11:07:47;96422.78;;;9.59;55.59
22862;BME280;11598;50.652;6.172;2023-04-06T11:17:47;96427.59;;;9.52;56.65
22862;BME280;11598;50.652;6.172;2023-04-06T11:27:49;96411.72;;;8.95;55.71
22862;BME280;11598;50.652;6.172;2023-04-06T11:37:50;96425.38;;;8.58;58.65
22862;BME280;11598;50.652;6.172;2023-04-06T11:48:00;96414.22;;;8.18;62.79
22862;BME280;11598;50.652;6.172;2023-04-06T11:58:01;96412.78;;;8.14;65.37
22862;BME280;11598;50.652;6.172;2023-04-06T12:08:01;96404.41;;;7.83;66.63
22862;BME280;11598;50.652;6.172;2023-04-06T12:18:02;96408.16;;;7.92;67.04
22862;BME280;11598;50.652;6.172;2023-04-06T12:28:02;96403.00;;;7.65;69.13
22862;BME280;11598;50.652;6.172;2023-04-06T12:38:02;96402.56;;;7.16;72.61
22862;BME280;11598;50.652;6.172;2023-04-06T12:48:03;96390.91;;;6.82;76.28
22862;BME280;11598;50.652;6.172;2023-04-06T12:58:03;96387.09;;;6.45;79.93
22862;BME280;11598;50.652;6.172;2023-04-06T13:08:04;96377.75;;;6.28;83.15
22862;BME280;11598;50.652;6.172;2023-04-06T13:18:04;96370.59;;;6.33;84.74
22862;BME280;11598;50.652;6.172;2023-04-06T13:28:04;96368.56;;;6.38;85.88
22862;BME280;11598;50.652;6.172;2023-04-06T13:38:05;96359.88;;;6.39;87.69
22862;BME280;11598;50.652;6.172;2023-04-06T13:48:05;96347.06;;;6.23;89.40
22862;BME280;11598;50.652;6.172;2023-04-06T13:58:06;96343.50;;;6.40;90.91
22862;BME280;11598;50.652;6.172;2023-04-06T14:08:06;96327.41;;;6.21;91.90
22862;BME280;11598;50.652;6.172;2023-04-06T14:18:07;96334.03;;;5.96;93.71
22862;BME280;11598;50.652;6.172;2023-04-06T14:28:08;96328.25;;;5.77;95.40
22862;BME280;11598;50.652;6.172;2023-04-06T14:38:09;96314.91;;;5.54;97.07
22862;BME280;11598;50.652;6.172;2023-04-06T14:48:09;96302.91;;;5.39;98.42
22862;BME280;11598;50.652;6.172;2023-04-06T14:58:12;96305.31;;;5.42;99.43
22862;BME280;11598;50.652;6.172;2023-04-06T15:08:12;96302.38;;;5.48;100.00
22862;BME280;11598;50.652;6.172;2023-04-06T15:18:15;96300.47;;;5.51;100.00
22862;BME280;11598;50.652;6.172;2023-04-06T15:28:16;96297.97;;;5.50;100.00
22862;BME280;11598;50.652;6.172;2023-04-06T15:38:16;96281.97;;;5.29;100.00
22862;BME280;11598;50.652;6.172;2023-04-06T15:48:16;96283.16;;;5.07;100.00
22862;BME280;11598;50.652;6.172;2023-04-06T15:58:18;96283.66;;;4.98;100.00
22862;BME280;11598;50.652;6.172;2023-04-06T16:08:18;96281.34;;;5.09;100.00
22862;BME280;11598;50.652;6.172;2023-04-06T16:18:19;96279.50;;;5.12;100.00
22862;BME280;11598;50.652;6.172;2023-04-06T16:28:20;96283.72;;;5.13;100.00
22862;BME280;11598;50.652;6.172;2023-04-06T16:38:22;96284.53;;;4.99;100.00
22862;BME280;11598;50.652;6.172;2023-04-06T16:48:23;96281.38;;;4.78;100.00
22862;BME280;11598;50.652;6.172;2023-04-06T16:58:23;96276.72;;;4.69;100.00
22862;BME280;11598;50.652;6.172;2023-04-06T17:08:24;96278.19;;;4.57;100.00
22862;BME280;11598;50.652;6.172;2023-04-06T17:18:24;96277.53;;;4.53;100.00
22862;BME280;11598;50.652;6.172;2023-04-06T17:28:25;96276.69;;;4.53;100.00
22862;BME280;11598;50.652;6.172;2023-04-06T17:38:25;96282.53;;;4.56;100.00
22862;BME280;11598;50.652;6.172;2023-04-06T17:48:25;96275.19;;;4.49;100.00
22862;BME280;11598;50.652;6.172;2023-04-06T17:58:28;96290.72;;;4.47;100.00
22862;BME280;11598;50.652;6.172;2023-04-06T18:08:28;96279.75;;;4.43;100.00
22862;BME280;11598;50.652;6.172;2023-04-06T18:18:29;96290.72;;;4.47;100.00
22862;BME280;11598;50.652;6.172;2023-04-06T18:28:29;96290.56;;;4.50;100.00
22862;BME280;11598;50.652;6.172;2023-04-06T18:38:30;96296.53;;;4.51;100.00
22862;BME280;11598;50.652;6.172;2023-04-06T18:59:29;96280.09;;;4.53;100.00
22862;BME280;11598;50.652;6.172;2023-04-06T19:09:29;96277.75;;;4.49;100.00
22862;BME280;11598;50.652;6.172;2023-04-06T19:19:30;96291.78;;;4.43;100.00
22862;BME280;11598;50.652;6.172;2023-04-06T19:29:30;96279.09;;;4.56;100.00
22862;BME280;11598;50.652;6.172;2023-04-06T19:39:31;96280.84;;;4.55;100.00
22862;BME280;11598;50.652;6.172;2023-04-06T19:49:31;96270.31;;;4.60;100.00
22862;BME280;11598;50.652;6.172;2023-04-06T19:59:31;96272.47;;;4.68;100.00
22862;BME280;11598;50.652;6.172;2023-04-06T20:09:33;96271.22;;;4.75;100.00
22862;BME280;11598;50.652;6.172;2023-04-06T20:19:33;96275.22;;;4.80;100.00
22862;BME280;11598;50.652;6.172;2023-04-06T20:29:34;96282.84;;;4.82;100.00
22862;BME280;11598;50.652;6.172;2023-04-06T20:39:34;96271.97;;;4.93;100.00
22862;BME280;11598;50.652;6.172;2023-04-06T20:49:35;96263.81;;;5.00;100.00
22862;BME280;11598;50.652;6.172;2023-04-06T20:59:36;96264.88;;;5.12;100.00
22862;BME280;11598;50.652;6.172;2023-04-06T21:09:38;96257.31;;;5.25;100.00
22862;BME280;11598;50.652;6.172;2023-04-06T21:19:39;96244.81;;;5.33;100.00
22862;BME280;11598;50.652;6.172;2023-04-06T21:29:39;96241.91;;;5.39;100.00
22862;BME280;11598;50.652;6.172;2023-04-06T21:39:40;96238.25;;;5.43;100.00
22862;BME280;11598;50.652;6.172;2023-04-06T21:49:40;96244.03;;;5.47;100.00
22862;BME280;11598;50.652;6.172;2023-04-06T21:59:41;96243.69;;;5.53;100.00
22862;BME280;11598;50.652;6.172;2023-04-06T22:09:41;96249.41;;;5.58;100.00
22862;BME280;11598;50.652;6.172;2023-04-06T22:19:48;96245.75;;;5.62;100.00
22862;BME280;11598;50.652;6.172;2023-04-06T22:29:48;96236.13;;;5.64;100.00
22862;BME280;11598;50.652;6.172;2023-04-06T22:39:48;96237.06;;;5.63;100.00
22862;BME280;11598;50.652;6.172;2023-04-06T22:49:49;96235.25;;;5.65;100.00
22862;BME280;11598;50.652;6.172;2023-04-06T22:59:49;96229.91;;;5.68;100.00
22862;BME280;11598;50.652;6.172;2023-04-06T23:09:50;96227.16;;;5.71;100.00
22862;BME280;11598;50.652;6.172;2023-04-06T23:19:50;96235.53;;;5.75;100.00
22862;BME280;11598;50.652;6.172;2023-04-06T23:29:51;96245.00;;;5.75;100.00
22862;BME280;11598;50.652;6.172;2023-04-06T23:39:51;96244.09;;;5.76;100.00
22862;BME280;11598;50.652;6.172;2023-04-06T23:49:52;96246.84;;;5.72;100.00
22862;BME280;11598;50.652;6.172;2023-04-06T23:59:52;96247.59;;;5.75;100.00
